sensor_id;sensor_type;location;lat;lon;timestamp;pressure;altitude;pressure_sealevel;temperature;humidity
31483;BME280;18103;52.246;8.052;2024-03-22T00:01:48;100640.06;;;9.22;87.27
31483;BME280;18103;52.246;8.052;2024-03-22T00:04:17;100647.03;;;9.23;88.49
31483;BME280;18103;52.246;8.052;2024-03-22T00:06:46;100636.06;;;9.17;88.40
31483;BME280;18103;52.246;8.052;2024-03-22T00:09:14;100627.84;;;9.21;88.00
31483;BME280;18103;52.246;8.052;2024-03-22T00:11:43;100624.59;;;9.31;87.18
31483;BME280;18103;52.246;8.052;2024-03-22T00:14:09;100615.44;;;9.23;88.68
31483;BME280;18103;52.246;8.052;2024-03-22T00:16:37;100610.25;;;9.09;89.02
31483;BME280;18103;52.246;8.052;2024-03-22T00:19:03;100604.69;;;9.27;87.60
31483;BME280;18103;52.246;8.052;2024-03-22T00:21:31;100601.28;;;9.24;88.23
31483;BME280;18103;52.246;8.052;2024-03-22T00:24:01;100604.78;;;9.25;88.92
31483;BME280;18103;52.246;8.052;2024-03-22T00:26:27;100590.56;;;9.28;88.54
31483;BME280;18103;52.246;8.052;2024-03-22T00:28:53;100586.97;;;9.16;89.04
31483;BME280;18103;52.246;8.052;2024-03-22T00:31:20;100598.16;;;9.19;88.88
31483;BME280;18103;52.246;8.052;2024-03-22T00:33:46;100582.75;;;9.13;90.01
31483;BME280;18103;52.246;8.052;2024-03-22T00:36:11;100588.00;;;9.13;89.89
31483;BME280;18103;52.246;8.052;2024-03-22T00:38:39;100582.53;;;9.16;89.39
31483;BME280;18103;52.246;8.052;2024-03-22T00:41:10;100581.81;;;9.14;89.61
31483;BME280;18103;52.246;8.052;2024-03-22T00:43:36;100581.47;;;9.19;89.74
31483;BME280;18103;52.246;8.052;2024-03-22T00:46:03;100579.59;;;9.21;89.30
31483;BME280;18103;52.246;8.052;2024-03-22T00:48:29;100575.47;;;9.30;89.03
31483;BME280;18103;52.246;8.052;2024-03-22T00:50:55;100575.38;;;9.31;88.77
31483;BME280;18103;52.246;8.052;2024-03-22T00:53:22;100576.53;;;9.27;89.59
31483;BME280;18103;52.246;8.052;2024-03-22T00:55:50;100581.78;;;9.27;89.72
31483;BME280;18103;52.246;8.052;2024-03-22T00:58:18;100571.16;;;9.29;89.79
31483;BME280;18103;52.246;8.052;2024-03-22T01:00:49;100571.47;;;9.24;89.33
31483;BME280;18103;52.246;8.052;2024-03-22T01:03:19;100569.69;;;9.24;89.94
31483;BME280;18103;52.246;8.052;2024-03-22T01:05:44;100563.78;;;9.21;89.95
31483;BME280;18103;52.246;8.052;2024-03-22T01:08:10;100564.28;;;9.26;90.00
31483;BME280;18103;52.246;8.052;2024-03-22T01:10:43;100555.22;;;9.30;89.07
31483;BME280;18103;52.246;8.052;2024-03-22T01:13:08;100554.09;;;9.21;90.25
31483;BME280;18103;52.246;8.052;2024-03-22T01:15:34;100544.09;;;9.27;89.46
31483;BME280;18103;52.246;8.052;2024-03-22T01:17:59;100546.84;;;9.25;90.19
31483;BME280;18103;52.246;8.052;2024-03-22T01:20:29;100554.50;;;9.41;88.71
31483;BME280;18103;52.246;8.052;2024-03-22T01:22:55;100540.72;;;9.24;90.75
31483;BME280;18103;52.246;8.052;2024-03-22T01:25:22;100537.13;;;9.25;89.99
31483;BME280;18103;52.246;8.052;2024-03-22T01:27:50;100535.94;;;9.42;88.63
31483;BME280;18103;52.246;8.052;2024-03-22T01:30:16;100532.63;;;9.28;90.34
31483;BME280;18103;52.246;8.052;2024-03-22T01:32:41;100530.19;;;9.37;88.76
31483;BME280;18103;52.246;8.052;2024-03-22T01:35:08;100519.63;;;9.37;90.54
31483;BME280;18103;52.246;8.052;2024-03-22T01:37:38;100521.09;;;9.29;91.10
31483;BME280;18103;52.246;8.052;2024-03-22T01:40:03;100527.44;;;9.26;90.34
31483;BME280;18103;52.246;8.052;2024-03-22T01:42:32;100521.63;;;9.34;90.32
31483;BME280;18103;52.246;8.052;2024-03-22T01:44:57;100518.34;;;9.30;90.83
31483;BME280;18103;52.246;8.052;2024-03-22T01:47:22;100514.44;;;9.36;89.39
31483;BME280;18103;52.246;8.052;2024-03-22T01:49:53;100517.09;;;9.36;90.49
31483;BME280;18103;52.246;8.052;2024-03-22T01:52:22;100503.63;;;9.28;91.48
31483;BME280;18103;52.246;8.052;2024-03-22T01:54:50;100499.31;;;9.27;91.05
31483;BME280;18103;52.246;8.052;2024-03-22T01:57:15;100492.75;;;9.32;91.96
31483;BME280;18103;52.246;8.052;2024-03-22T01:59:41;100483.91;;;9.33;90.96
31483;BME280;18103;52.246;8.052;2024-03-22T02:02:07;100476.13;;;9.32;90.71
31483;BME280;18103;52.246;8.052;2024-03-22T02:04:41;100480.88;;;9.27;92.36
31483;BME280;18103;52.246;8.052;2024-03-22T02:07:06;100482.84;;;9.36;91.17
31483;BME280;18103;52.246;8.052;2024-03-22T02:09:34;100475.38;;;9.30;91.45
31483;BME280;18103;52.246;8.052;2024-03-22T02:12:01;100472.81;;;9.41;89.78
31483;BME280;18103;52.246;8.052;2024-03-22T02:14:26;100478.13;;;9.28;92.50
31483;BME280;18103;52.246;8.052;2024-03-22T02:16:52;100475.16;;;9.33;91.16
31483;BME280;18103;52.246;8.052;2024-03-22T02:19:17;100469.28;;;9.29;92.39
31483;BME280;18103;52.246;8.052;2024-03-22T02:21:45;100457.78;;;9.30;93.02
31483;BME280;18103;52.246;8.052;2024-03-22T02:24:10;100449.97;;;9.41;91.22
31483;BME280;18103;52.246;8.052;2024-03-22T02:26:38;100435.22;;;9.39;91.14
31483;BME280;18103;52.246;8.052;2024-03-22T02:29:04;100441.66;;;9.35;91.77
31483;BME280;18103;52.246;8.052;2024-03-22T02:31:31;100438.69;;;9.39;91.48
31483;BME280;18103;52.246;8.052;2024-03-22T02:33:58;100440.69;;;9.36;91.83
31483;BME280;18103;52.246;8.052;2024-03-22T02:36:26;100436.44;;;9.22;92.78
31483;BME280;18103;52.246;8.052;2024-03-22T02:38:52;100437.00;;;9.38;91.64
31483;BME280;18103;52.246;8.052;2024-03-22T02:41:17;100426.81;;;9.34;92.33
31483;BME280;18103;52.246;8.052;2024-03-22T02:43:45;100426.09;;;9.32;93.52
31483;BME280;18103;52.246;8.052;2024-03-22T02:46:10;100429.09;;;9.38;91.76
31483;BME280;18103;52.246;8.052;2024-03-22T02:48:35;100419.13;;;9.31;93.15
31483;BME280;18103;52.246;8.052;2024-03-22T02:51:03;100419.25;;;9.53;90.99
31483;BME280;18103;52.246;8.052;2024-03-22T02:53:29;100414.97;;;9.39;92.13
31483;BME280;18103;52.246;8.052;2024-03-22T02:55:54;100429.97;;;9.26;93.40
31483;BME280;18103;52.246;8.052;2024-03-22T02:58:20;100419.72;;;9.34;92.47
31483;BME280;18103;52.246;8.052;2024-03-22T03:00:46;100422.75;;;9.41;92.13
31483;BME280;18103;52.246;8.052;2024-03-22T03:03:13;100410.22;;;9.45;92.48
31483;BME280;18103;52.246;8.052;2024-03-22T03:05:38;100399.91;;;9.41;91.64
31483;BME280;18103;52.246;8.052;2024-03-22T03:08:06;100388.97;;;9.35;93.49
31483;BME280;18103;52.246;8.052;2024-03-22T03:10:37;100378.56;;;9.33;93.66
31483;BME280;18103;52.246;8.052;2024-03-22T03:13:07;100368.84;;;9.34;94.14
31483;BME280;18103;52.246;8.052;2024-03-22T03:15:32;100361.94;;;9.44;92.23
31483;BME280;18103;52.246;8.052;2024-03-22T03:18:00;100368.22;;;9.30;94.37
31483;BME280;18103;52.246;8.052;2024-03-22T03:20:28;100371.94;;;9.28;95.80
31483;BME280;18103;52.246;8.052;2024-03-22T03:22:55;100370.06;;;9.41;94.03
31483;BME280;18103;52.246;8.052;2024-03-22T03:25:25;100354.63;;;9.36;94.43
31483;BME280;18103;52.246;8.052;2024-03-22T03:27:55;100356.78;;;9.42;94.48
31483;BME280;18103;52.246;8.052;2024-03-22T03:30:23;100370.66;;;9.33;94.96
31483;BME280;18103;52.246;8.052;2024-03-22T03:32:51;100357.03;;;9.39;94.72
31483;BME280;18103;52.246;8.052;2024-03-22T03:35:21;100351.75;;;9.39;94.43
31483;BME280;18103;52.246;8.052;2024-03-22T03:37:49;100339.38;;;9.53;93.02
31483;BME280;18103;52.246;8.052;2024-03-22T03:40:15;100332.41;;;9.52;92.75
31483;BME280;18103;52.246;8.052;2024-03-22T03:42:42;100328.28;;;9.36;93.98
31483;BME280;18103;52.246;8.052;2024-03-22T03:45:07;100330.72;;;9.51;93.82
31483;BME280;18103;52.246;8.052;2024-03-22T03:47:35;100325.28;;;9.41;95.02
31483;BME280;18103;52.246;8.052;2024-03-22T03:50:00;100313.47;;;9.47;94.05
31483;BME280;18103;52.246;8.052;2024-03-22T03:52:26;100315.84;;;9.50;94.70
31483;BME280;18103;52.246;8.052;2024-03-22T03:54:51;100317.31;;;9.54;93.76
31483;BME280;18103;52.246;8.052;2024-03-22T03:57:17;100305.50;;;9.35;95.59
31483;BME280;18103;52.246;8.052;2024-03-22T03:59:42;100291.81;;;9.54;93.09
31483;BME280;18103;52.246;8.052;2024-03-22T04:02:07;100300.53;;;9.44;93.87
31483;BME280;18103;52.246;8.052;2024-03-22T04:04:33;100299.41;;;9.35;94.94
31483;BME280;18103;52.246;8.052;2024-03-22T04:07:03;100296.78;;;9.35;96.55
31483;BME280;18103;52.246;8.052;2024-03-22T04:09:28;100294.63;;;9.40;94.87
31483;BME280;18103;52.246;8.052;2024-03-22T04:11:57;100297.59;;;9.35;95.24
31483;BME280;18103;52.246;8.052;2024-03-22T04:14:24;100296.69;;;9.48;95.34
31483;BME280;18103;52.246;8.052;2024-03-22T04:16:52;100289.63;;;9.48;95.12
31483;BME280;18103;52.246;8.052;2024-03-22T04:19:20;100303.88;;;9.46;95.59
31483;BME280;18103;52.246;8.052;2024-03-22T04:21:49;100280.50;;;9.41;95.91
31483;BME280;18103;52.246;8.052;2024-03-22T04:24:15;100280.16;;;9.46;95.57
31483;BME280;18103;52.246;8.052;2024-03-22T04:26:43;100263.41;;;9.47;95.23
31483;BME280;18103;52.246;8.052;2024-03-22T04:29:08;100259.34;;;9.54;94.31
31483;BME280;18103;52.246;8.052;2024-03-22T04:31:35;100258.38;;;9.44;95.35
31483;BME280;18103;52.246;8.052;2024-03-22T04:34:04;100256.00;;;9.52;95.02
31483;BME280;18103;52.246;8.052;2024-03-22T04:36:32;100262.84;;;9.54;95.88
31483;BME280;18103;52.246;8.052;2024-03-22T04:39:00;100256.25;;;9.60;94.27
31483;BME280;18103;52.246;8.052;2024-03-22T04:41:25;100260.41;;;9.51;95.40
31483;BME280;18103;52.246;8.052;2024-03-22T04:43:53;100251.94;;;9.59;94.88
31483;BME280;18103;52.246;8.052;2024-03-22T04:46:20;100239.00;;;9.56;95.11
31483;BME280;18103;52.246;8.052;2024-03-22T04:48:46;100241.28;;;9.61;94.29
31483;BME280;18103;52.246;8.052;2024-03-22T04:51:11;100247.84;;;9.55;95.17
31483;BME280;18103;52.246;8.052;2024-03-22T04:53:39;100238.38;;;9.52;95.08
31483;BME280;18103;52.246;8.052;2024-03-22T04:56:07;100243.25;;;9.46;96.64
31483;BME280;18103;52.246;8.052;2024-03-22T04:58:32;100231.00;;;9.69;94.53
31483;BME280;18103;52.246;8.052;2024-03-22T05:01:03;100222.13;;;9.58;95.72
31483;BME280;18103;52.246;8.052;2024-03-22T05:03:30;100222.00;;;9.60;94.78
31483;BME280;18103;52.246;8.052;2024-03-22T05:05:56;100214.56;;;9.65;95.55
31483;BME280;18103;52.246;8.052;2024-03-22T05:08:22;100225.94;;;9.54;96.53
31483;BME280;18103;52.246;8.052;2024-03-22T05:10:52;100227.13;;;9.50;96.38
31483;BME280;18103;52.246;8.052;2024-03-22T05:13:20;100236.75;;;9.63;95.88
31483;BME280;18103;52.246;8.052;2024-03-22T05:15:46;100239.13;;;9.54;96.94
31483;BME280;18103;52.246;8.052;2024-03-22T05:18:13;100246.91;;;9.56;95.77
31483;BME280;18103;52.246;8.052;2024-03-22T05:20:41;100246.03;;;9.55;96.16
31483;BME280;18103;52.246;8.052;2024-03-22T05:23:09;100233.00;;;9.65;96.66
31483;BME280;18103;52.246;8.052;2024-03-22T05:25:39;100232.78;;;9.68;96.06
31483;BME280;18103;52.246;8.052;2024-03-22T05:28:09;100229.19;;;9.81;95.59
31483;BME280;18103;52.246;8.052;2024-03-22T05:30:37;100240.97;;;9.76;94.57
31483;BME280;18103;52.246;8.052;2024-03-22T05:33:04;100234.56;;;9.68;96.65
31483;BME280;18103;52.246;8.052;2024-03-22T05:35:37;100228.25;;;9.82;94.71
31483;BME280;18103;52.246;8.052;2024-03-22T05:38:09;100228.13;;;9.72;95.46
31483;BME280;18103;52.246;8.052;2024-03-22T05:40:36;100227.53;;;9.68;96.73
31483;BME280;18103;52.246;8.052;2024-03-22T05:43:06;100231.50;;;9.74;96.41
31483;BME280;18103;52.246;8.052;2024-03-22T05:45:33;100233.06;;;9.76;96.71
31483;BME280;18103;52.246;8.052;2024-03-22T05:48:01;100218.06;;;9.66;97.30
31483;BME280;18103;52.246;8.052;2024-03-22T05:50:29;100216.25;;;9.77;96.63
31483;BME280;18103;52.246;8.052;2024-03-22T05:52:54;100213.88;;;9.86;94.67
31483;BME280;18103;52.246;8.052;2024-03-22T05:55:22;100219.13;;;9.74;96.72
31483;BME280;18103;52.246;8.052;2024-03-22T05:57:52;100227.28;;;9.71;97.21
31483;BME280;18103;52.246;8.052;2024-03-22T06:00:20;100217.44;;;9.85;97.09
31483;BME280;18103;52.246;8.052;2024-03-22T06:02:47;100203.06;;;9.89;97.00
31483;BME280;18103;52.246;8.052;2024-03-22T06:05:13;100213.50;;;9.90;97.05
31483;BME280;18103;52.246;8.052;2024-03-22T06:07:38;100208.34;;;9.89;96.81
31483;BME280;18103;52.246;8.052;2024-03-22T06:10:08;100202.75;;;9.93;96.94
31483;BME280;18103;52.246;8.052;2024-03-22T06:12:34;100195.06;;;10.02;96.24
31483;BME280;18103;52.246;8.052;2024-03-22T06:15:00;100196.25;;;9.98;96.77
31483;BME280;18103;52.246;8.052;2024-03-22T06:17:25;100193.03;;;9.94;97.43
31483;BME280;18103;52.246;8.052;2024-03-22T06:19:51;100201.75;;;9.94;97.15
31483;BME280;18103;52.246;8.052;2024-03-22T06:22:18;100203.19;;;9.87;97.20
31483;BME280;18103;52.246;8.052;2024-03-22T06:24:46;100208.59;;;9.97;97.81
31483;BME280;18103;52.246;8.052;2024-03-22T06:27:11;100210.78;;;9.92;97.25
31483;BME280;18103;52.246;8.052;2024-03-22T06:29:39;100201.75;;;9.94;97.35
31483;BME280;18103;52.246;8.052;2024-03-22T06:32:05;100204.88;;;10.00;97.53
31483;BME280;18103;52.246;8.052;2024-03-22T06:34:35;100201.19;;;9.91;97.53
31483;BME280;18103;52.246;8.052;2024-03-22T06:37:04;100197.72;;;10.02;97.58
31483;BME280;18103;52.246;8.052;2024-03-22T06:39:29;100196.84;;;10.01;96.95
31483;BME280;18103;52.246;8.052;2024-03-22T06:41:57;100185.97;;;10.06;97.44
31483;BME280;18103;52.246;8.052;2024-03-22T06:44:23;100181.00;;;10.13;96.97
31483;BME280;18103;52.246;8.052;2024-03-22T06:46:50;100186.41;;;10.11;97.75
31483;BME280;18103;52.246;8.052;2024-03-22T06:49:16;100177.91;;;10.19;97.19
31483;BME280;18103;52.246;8.052;2024-03-22T06:51:42;100171.19;;;10.15;96.77
31483;BME280;18103;52.246;8.052;2024-03-22T06:54:07;100168.44;;;10.16;96.82
31483;BME280;18103;52.246;8.052;2024-03-22T06:56:35;100172.13;;;10.25;96.68
31483;BME280;18103;52.246;8.052;2024-03-22T06:59:03;100178.34;;;10.24;96.54
31483;BME280;18103;52.246;8.052;2024-03-22T07:01:28;100184.75;;;10.21;97.09
31483;BME280;18103;52.246;8.052;2024-03-22T07:03:56;100173.81;;;10.26;97.50
31483;BME280;18103;52.246;8.052;2024-03-22T07:06:22;100174.50;;;10.28;97.21
31483;BME280;18103;52.246;8.052;2024-03-22T07:08:51;100172.47;;;10.32;96.58
31483;BME280;18103;52.246;8.052;2024-03-22T07:11:17;100167.81;;;10.24;97.51
31483;BME280;18103;52.246;8.052;2024-03-22T07:13:45;100175.00;;;10.22;97.67
31483;BME280;18103;52.246;8.052;2024-03-22T07:16:12;100177.66;;;10.22;97.79
31483;BME280;18103;52.246;8.052;2024-03-22T07:18:43;100165.91;;;10.26;98.14
31483;BME280;18103;52.246;8.052;2024-03-22T07:21:08;100168.16;;;10.31;97.28
31483;BME280;18103;52.246;8.052;2024-03-22T07:23:33;100169.72;;;10.33;97.48
31483;BME280;18103;52.246;8.052;2024-03-22T07:25:59;100164.56;;;10.32;97.18
31483;BME280;18103;52.246;8.052;2024-03-22T07:28:24;100159.16;;;10.44;97.13
31483;BME280;18103;52.246;8.052;2024-03-22T07:30:50;100164.69;;;10.41;97.59
31483;BME280;18103;52.246;8.052;2024-03-22T07:33:15;100166.69;;;10.49;96.44
31483;BME280;18103;52.246;8.052;2024-03-22T07:35:43;100163.00;;;10.40;96.92
31483;BME280;18103;52.246;8.052;2024-03-22T07:38:09;100160.13;;;10.43;97.24
31483;BME280;18103;52.246;8.052;2024-03-22T07:40:37;100157.94;;;10.49;96.73
31483;BME280;18103;52.246;8.052;2024-03-22T07:43:07;100156.28;;;10.48;96.83
31483;BME280;18103;52.246;8.052;2024-03-22T07:45:35;100156.88;;;10.51;97.20
31483;BME280;18103;52.246;8.052;2024-03-22T07:48:05;100160.22;;;10.53;96.37
31483;BME280;18103;52.246;8.052;2024-03-22T07:50:31;100169.25;;;10.51;96.63
31483;BME280;18103;52.246;8.052;2024-03-22T07:52:56;100148.44;;;10.57;95.99
31483;BME280;18103;52.246;8.052;2024-03-22T07:55:29;100148.78;;;10.64;95.39
31483;BME280;18103;52.246;8.052;2024-03-22T07:57:59;100153.56;;;10.70;95.00
31483;BME280;18103;52.246;8.052;2024-03-22T08:00:27;100157.44;;;10.66;95.34
31483;BME280;18103;52.246;8.052;2024-03-22T08:02:59;100147.31;;;10.71;94.46
31483;BME280;18103;52.246;8.052;2024-03-22T08:05:26;100144.31;;;10.65;95.06
31483;BME280;18103;52.246;8.052;2024-03-22T08:07:52;100143.13;;;10.69;94.51
31483;BME280;18103;52.246;8.052;2024-03-22T08:10:19;100143.44;;;10.75;94.62
31483;BME280;18103;52.246;8.052;2024-03-22T08:12:45;100138.91;;;10.77;94.64
31483;BME280;18103;52.246;8.052;2024-03-22T08:15:10;100141.53;;;10.77;94.10
31483;BME280;18103;52.246;8.052;2024-03-22T08:17:38;100140.19;;;10.83;94.02
31483;BME280;18103;52.246;8.052;2024-03-22T08:20:07;100138.13;;;10.87;93.70
31483;BME280;18103;52.246;8.052;2024-03-22T08:22:32;100144.13;;;10.89;93.07
31483;BME280;18103;52.246;8.052;2024-03-22T08:25:02;100142.56;;;10.86;93.08
31483;BME280;18103;52.246;8.052;2024-03-22T08:27:35;100140.53;;;10.90;92.69
31483;BME280;18103;52.246;8.052;2024-03-22T08:30:01;100132.72;;;10.88;92.04
31483;BME280;18103;52.246;8.052;2024-03-22T08:32:31;100135.59;;;10.85;92.22
31483;BME280;18103;52.246;8.052;2024-03-22T08:34:56;100138.00;;;10.88;91.61
31483;BME280;18103;52.246;8.052;2024-03-22T08:37:21;100134.25;;;10.91;91.45
31483;BME280;18103;52.246;8.052;2024-03-22T08:39:49;100129.09;;;10.89;91.37
31483;BME280;18103;52.246;8.052;2024-03-22T08:42:14;100120.28;;;11.00;91.33
31483;BME280;18103;52.246;8.052;2024-03-22T08:44:40;100122.59;;;10.93;91.39
31483;BME280;18103;52.246;8.052;2024-03-22T08:47:10;100116.25;;;10.96;91.51
31483;BME280;18103;52.246;8.052;2024-03-22T08:49:35;100109.59;;;11.02;91.23
31483;BME280;18103;52.246;8.052;2024-03-22T08:52:04;100120.50;;;11.08;91.21
31483;BME280;18103;52.246;8.052;2024-03-22T08:54:29;100096.00;;;11.06;91.16
31483;BME280;18103;52.246;8.052;2024-03-22T08:56:57;100106.31;;;11.09;90.92
31483;BME280;18103;52.246;8.052;2024-03-22T08:59:27;100103.22;;;11.04;90.95
31483;BME280;18103;52.246;8.052;2024-03-22T09:01:54;100111.41;;;11.01;90.70
31483;BME280;18103;52.246;8.052;2024-03-22T09:04:20;100111.78;;;10.96;91.04
31483;BME280;18103;52.246;8.052;2024-03-22T09:06:48;100107.50;;;10.95;90.55
31483;BME280;18103;52.246;8.052;2024-03-22T09:09:13;100104.59;;;10.99;90.39
31483;BME280;18103;52.246;8.052;2024-03-22T09:11:38;100099.56;;;10.95;90.56
31483;BME280;18103;52.246;8.052;2024-03-22T09:14:04;100101.94;;;10.99;90.41
31483;BME280;18103;52.246;8.052;2024-03-22T09:16:29;100105.53;;;10.98;90.13
31483;BME280;18103;52.246;8.052;2024-03-22T09:19:00;100095.56;;;11.01;89.69
31483;BME280;18103;52.246;8.052;2024-03-22T09:21:27;100097.63;;;10.98;89.89
31483;BME280;18103;52.246;8.052;2024-03-22T09:23:59;100097.03;;;10.94;89.57
31483;BME280;18103;52.246;8.052;2024-03-22T09:26:24;100093.22;;;11.08;89.02
31483;BME280;18103;52.246;8.052;2024-03-22T09:28:54;100095.34;;;11.14;89.24
31483;BME280;18103;52.246;8.052;2024-03-22T09:31:22;100089.66;;;11.19;88.83
31483;BME280;18103;52.246;8.052;2024-03-22T09:33:47;100082.66;;;11.29;88.65
31483;BME280;18103;52.246;8.052;2024-03-22T09:36:12;100085.41;;;11.27;88.30
31483;BME280;18103;52.246;8.052;2024-03-22T09:38:40;100081.81;;;11.28;88.06
31483;BME280;18103;52.246;8.052;2024-03-22T09:41:06;100079.03;;;11.30;87.90
31483;BME280;18103;52.246;8.052;2024-03-22T09:43:34;100076.28;;;11.41;88.16
31483;BME280;18103;52.246;8.052;2024-03-22T09:46:00;100077.97;;;11.42;87.83
31483;BME280;18103;52.246;8.052;2024-03-22T09:48:26;100075.06;;;11.45;87.56
31483;BME280;18103;52.246;8.052;2024-03-22T09:50:52;100077.16;;;11.42;87.00
31483;BME280;18103;52.246;8.052;2024-03-22T09:53:21;100081.56;;;11.41;86.84
31483;BME280;18103;52.246;8.052;2024-03-22T09:55:49;100091.19;;;11.42;85.83
31483;BME280;18103;52.246;8.052;2024-03-22T09:58:19;100088.25;;;11.45;85.74
31483;BME280;18103;52.246;8.052;2024-03-22T10:00:47;100085.91;;;11.42;85.58
31483;BME280;18103;52.246;8.052;2024-03-22T10:03:12;100080.88;;;11.39;84.82
31483;BME280;18103;52.246;8.052;2024-03-22T10:05:38;100087.72;;;11.42;84.96
31483;BME280;18103;52.246;8.052;2024-03-22T10:08:04;100074.22;;;11.45;85.02
31483;BME280;18103;52.246;8.052;2024-03-22T10:10:35;100075.91;;;11.46;85.25
31483;BME280;18103;52.246;8.052;2024-03-22T10:13:03;100076.28;;;11.41;84.85
31483;BME280;18103;52.246;8.052;2024-03-22T10:15:31;100073.41;;;11.44;85.08
31483;BME280;18103;52.246;8.052;2024-03-22T10:17:59;100083.13;;;11.44;84.53
31483;BME280;18103;52.246;8.052;2024-03-22T10:20:27;100070.44;;;11.38;84.77
31483;BME280;18103;52.246;8.052;2024-03-22T10:22:58;100078.94;;;11.41;84.60
31483;BME280;18103;52.246;8.052;2024-03-22T10:25:25;100077.53;;;11.37;85.09
31483;BME280;18103;52.246;8.052;2024-03-22T10:27:53;100081.00;;;11.38;85.33
31483;BME280;18103;52.246;8.052;2024-03-22T10:30:22;100086.00;;;11.31;85.27
31483;BME280;18103;52.246;8.052;2024-03-22T10:32:50;100087.66;;;11.32;85.54
31483;BME280;18103;52.246;8.052;2024-03-22T10:35:19;100090.19;;;11.34;86.02
31483;BME280;18103;52.246;8.052;2024-03-22T10:37:44;100079.75;;;11.32;85.98
31483;BME280;18103;52.246;8.052;2024-03-22T10:40:10;100086.63;;;11.23;86.30
31483;BME280;18103;52.246;8.052;2024-03-22T10:42:39;100084.72;;;11.25;86.32
31483;BME280;18103;52.246;8.052;2024-03-22T10:45:09;100080.78;;;11.20;86.51
31483;BME280;18103;52.246;8.052;2024-03-22T10:47:36;100078.84;;;11.22;86.73
31483;BME280;18103;52.246;8.052;2024-03-22T10:50:08;100083.25;;;11.11;87.17
31483;BME280;18103;52.246;8.052;2024-03-22T10:53:03;100079.66;;;11.12;87.42
31483;BME280;18103;52.246;8.052;2024-03-22T10:55:37;100085.47;;;11.16;87.86
31483;BME280;18103;52.246;8.052;2024-03-22T10:58:03;100083.44;;;11.20;87.69
31483;BME280;18103;52.246;8.052;2024-03-22T11:00:29;100075.91;;;11.15;87.88
31483;BME280;18103;52.246;8.052;2024-03-22T11:02:56;100082.66;;;11.08;88.33
31483;BME280;18103;52.246;8.052;2024-03-22T11:05:22;100080.81;;;10.99;89.01
31483;BME280;18103;52.246;8.052;2024-03-22T11:07:47;100081.44;;;10.91;90.06
31483;BME280;18103;52.246;8.052;2024-03-22T11:10:16;100090.47;;;10.88;91.10
31483;BME280;18103;52.246;8.052;2024-03-22T11:12:41;100088.94;;;10.86;91.85
31483;BME280;18103;52.246;8.052;2024-03-22T11:15:09;100083.44;;;10.99;91.75
31483;BME280;18103;52.246;8.052;2024-03-22T11:17:39;100089.16;;;10.83;93.23
31483;BME280;18103;52.246;8.052;2024-03-22T11:20:08;100091.03;;;10.71;93.97
31483;BME280;18103;52.246;8.052;2024-03-22T11:22:38;100080.88;;;10.66;94.62
31483;BME280;18103;52.246;8.052;2024-03-22T11:25:08;100078.03;;;10.58;95.43
31483;BME280;18103;52.246;8.052;2024-03-22T11:27:33;100078.41;;;10.74;94.67
31483;BME280;18103;52.246;8.052;2024-03-22T11:29:59;100079.59;;;10.60;95.90
31483;BME280;18103;52.246;8.052;2024-03-22T11:32:29;100073.72;;;10.57;95.87
31483;BME280;18103;52.246;8.052;2024-03-22T11:34:54;100066.41;;;10.49;96.93
31483;BME280;18103;52.246;8.052;2024-03-22T11:37:22;100068.69;;;10.54;96.52
31483;BME280;18103;52.246;8.052;2024-03-22T11:39:48;100066.88;;;10.54;96.69
31483;BME280;18103;52.246;8.052;2024-03-22T11:42:15;100071.47;;;10.52;96.42
31483;BME280;18103;52.246;8.052;2024-03-22T11:44:41;100074.25;;;10.51;96.89
31483;BME280;18103;52.246;8.052;2024-03-22T11:47:08;100066.25;;;10.62;96.16
31483;BME280;18103;52.246;8.052;2024-03-22T11:49:37;100063.78;;;10.49;97.49
31483;BME280;18103;52.246;8.052;2024-03-22T11:52:04;100065.84;;;10.46;96.82
31483;BME280;18103;52.246;8.052;2024-03-22T11:54:32;100067.66;;;10.34;97.01
31483;BME280;18103;52.246;8.052;2024-03-22T11:56:57;100059.44;;;10.27;97.26
31483;BME280;18103;52.246;8.052;2024-03-22T11:59:23;100056.56;;;10.19;97.55
31483;BME280;18103;52.246;8.052;2024-03-22T12:01:50;100054.38;;;10.24;97.36
31483;BME280;18103;52.246;8.052;2024-03-22T12:04:16;100055.81;;;10.28;96.75
31483;BME280;18103;52.246;8.052;2024-03-22T12:06:43;100057.75;;;10.26;97.13
31483;BME280;18103;52.246;8.052;2024-03-22T12:09:14;100063.50;;;10.31;96.87
31483;BME280;18103;52.246;8.052;2024-03-22T12:11:42;100052.09;;;10.31;97.05
31483;BME280;18103;52.246;8.052;2024-03-22T12:14:09;100054.50;;;10.22;97.33
31483;BME280;18103;52.246;8.052;2024-03-22T12:16:35;100048.16;;;10.25;96.50
31483;BME280;18103;52.246;8.052;2024-03-22T12:19:03;100041.53;;;10.31;96.38
31483;BME280;18103;52.246;8.052;2024-03-22T12:21:29;100037.47;;;10.26;96.74
31483;BME280;18103;52.246;8.052;2024-03-22T12:23:59;100035.16;;;10.33;96.60
31483;BME280;18103;52.246;8.052;2024-03-22T12:26:25;100036.50;;;10.27;97.43
31483;BME280;18103;52.246;8.052;2024-03-22T12:28:57;100035.91;;;10.24;98.19
31483;BME280;18103;52.246;8.052;2024-03-22T12:31:22;100027.81;;;10.16;98.45
31483;BME280;18103;52.246;8.052;2024-03-22T12:33:47;100023.72;;;10.23;98.39
31483;BME280;18103;52.246;8.052;2024-03-22T12:36:13;100030.19;;;10.19;98.86
31483;BME280;18103;52.246;8.052;2024-03-22T12:38:38;100017.00;;;10.19;99.01
31483;BME280;18103;52.246;8.052;2024-03-22T12:41:06;100019.38;;;10.22;99.14
31483;BME280;18103;52.246;8.052;2024-03-22T12:43:32;100020.22;;;10.22;98.89
31483;BME280;18103;52.246;8.052;2024-03-22T12:45:57;100016.75;;;10.22;99.37
31483;BME280;18103;52.246;8.052;2024-03-22T12:48:25;100012.09;;;10.14;99.81
31483;BME280;18103;52.246;8.052;2024-03-22T12:50:50;100007.41;;;10.18;99.68
31483;BME280;18103;52.246;8.052;2024-03-22T12:53:16;100005.69;;;10.28;99.15
31483;BME280;18103;52.246;8.052;2024-03-22T12:55:41;100007.88;;;10.23;99.05